UVA85 PAKT-PAWG
Flight info
| Callsign | UVA85 |
|---|---|
| Flight time | 0h 25m |
| Altitude | 15000 |
| Route | DOOZI2 LVD |
| Aircraft | A320/M-SDE3FGHIRWY/LB1 |
Departure
| Time | 2026-05-06 10:04 |
|---|---|
| Airport | Ketchikan International Airport (PAKT) |
Arrival
| Time | 2026-05-06 10:29 |
|---|---|
| Airport | Wrangell Airport (PAWG) |
| Time | Latitude | Longitude | Altitude | Speed | Heading |
|---|---|---|---|---|---|
| 2026-05-06 09:48 | 55.35587 | -131.70939 | 42 ft | 0 kts | 45° |
| 2026-05-06 09:56 | 55.35579 | -131.70952 | 42 ft | 4 kts | 47° |
| 2026-05-06 09:56 | 55.35562 | -131.70989 | 40 ft | 4 kts | 60° |
| 2026-05-06 09:57 | 55.35553 | -131.71031 | 39 ft | 4 kts | 88° |
| 2026-05-06 09:57 | 55.35557 | -131.71063 | 42 ft | 1 kts | 136° |
| 2026-05-06 09:57 | 55.35560 | -131.71069 | 42 ft | 0 kts | 136° |
| 2026-05-06 09:59 | 55.35559 | -131.71066 | 42 ft | 1 kts | 136° |
| 2026-05-06 09:59 | 55.35545 | -131.71043 | 40 ft | 4 kts | 136° |
| 2026-05-06 09:59 | 55.35517 | -131.70994 | 41 ft | 7 kts | 136° |
| 2026-05-06 09:59 | 55.35474 | -131.70921 | 40 ft | 10 kts | 136° |
| 2026-05-06 10:00 | 55.35419 | -131.70827 | 43 ft | 10 kts | 136° |
| 2026-05-06 10:00 | 55.35379 | -131.70758 | 52 ft | 8 kts | 136° |
| 2026-05-06 10:00 | 55.35307 | -131.70637 | 60 ft | 20 kts | 137° |
| 2026-05-06 10:00 | 55.35189 | -131.70446 | 86 ft | 21 kts | 137° |
| 2026-05-06 10:01 | 55.35097 | -131.70298 | 97 ft | 16 kts | 137° |
| 2026-05-06 10:01 | 55.35019 | -131.70170 | 100 ft | 15 kts | 137° |
| 2026-05-06 10:01 | 55.34932 | -131.70041 | 100 ft | 18 kts | 155° |
| 2026-05-06 10:01 | 55.34858 | -131.70061 | 100 ft | 5 kts | 204° |
| 2026-05-06 10:02 | 55.34814 | -131.70073 | 100 ft | 8 kts | 171° |
| 2026-05-06 10:02 | 55.34756 | -131.69998 | 98 ft | 12 kts | 132° |
| 2026-05-06 10:02 | 55.34714 | -131.69903 | 102 ft | 7 kts | 163° |
| 2026-05-06 10:02 | 55.34721 | -131.69943 | 100 ft | 7 kts | 315° |
| 2026-05-06 10:03 | 55.34764 | -131.70013 | 101 ft | 8 kts | 316° |
| 2026-05-06 10:03 | 55.34874 | -131.70200 | 101 ft | 51 kts | 316° |
| 2026-05-06 10:03 | 55.35293 | -131.70921 | 100 ft | 114 kts | 316° |
| 2026-05-06 10:03 | 55.35977 | -131.72093 | 180 ft | 152 kts | 315° |
| 2026-05-06 10:04 | 55.36719 | -131.73395 | 818 ft | 151 kts | 316° |
| 2026-05-06 10:04 | 55.37511 | -131.74753 | 1323 ft | 164 kts | 315° |
| 2026-05-06 10:04 | 55.38322 | -131.76143 | 2096 ft | 163 kts | 315° |
| 2026-05-06 10:04 | 55.39171 | -131.77602 | 2484 ft | 181 kts | 315° |
| 2026-05-06 10:05 | 55.40125 | -131.79247 | 2808 ft | 202 kts | 315° |
| 2026-05-06 10:05 | 55.41183 | -131.81069 | 3198 ft | 225 kts | 316° |
| 2026-05-06 10:05 | 55.42355 | -131.83088 | 3832 ft | 242 kts | 316° |
| 2026-05-06 10:05 | 55.43570 | -131.85193 | 4772 ft | 247 kts | 315° |
| 2026-05-06 10:06 | 55.44811 | -131.87338 | 5688 ft | 252 kts | 315° |
| 2026-05-06 10:06 | 55.46074 | -131.89526 | 6611 ft | 257 kts | 315° |
| 2026-05-06 10:06 | 55.47364 | -131.91759 | 7460 ft | 262 kts | 315° |
| 2026-05-06 10:06 | 55.48672 | -131.94023 | 8330 ft | 265 kts | 314° |
| 2026-05-06 10:07 | 55.49996 | -131.96317 | 9205 ft | 269 kts | 314° |
| 2026-05-06 10:07 | 55.51335 | -131.98644 | 10080 ft | 272 kts | 313° |
| 2026-05-06 10:07 | 55.52695 | -132.01015 | 10545 ft | 289 kts | 313° |
| 2026-05-06 10:07 | 55.54176 | -132.03610 | 10781 ft | 312 kts | 313° |
| 2026-05-06 10:08 | 55.55812 | -132.06347 | 11044 ft | 332 kts | 316° |
| 2026-05-06 10:08 | 55.57570 | -132.09069 | 11616 ft | 340 kts | 317° |
| 2026-05-06 10:08 | 55.59382 | -132.11776 | 12295 ft | 344 kts | 317° |
| 2026-05-06 10:08 | 55.61234 | -132.14508 | 12986 ft | 348 kts | 317° |
| 2026-05-06 10:09 | 55.63127 | -132.17237 | 13684 ft | 354 kts | 321° |
| 2026-05-06 10:09 | 55.65230 | -132.19563 | 14338 ft | 359 kts | 326° |
| 2026-05-06 10:09 | 55.67389 | -132.21830 | 14920 ft | 363 kts | 326° |
| 2026-05-06 10:09 | 55.69565 | -132.24136 | 15132 ft | 364 kts | 326° |
| 2026-05-06 10:10 | 55.71319 | -132.26012 | 15179 ft | 375 kts | 326° |
| 2026-05-06 10:10 | 55.73613 | -132.28467 | 15191 ft | 396 kts | 326° |
| 2026-05-06 10:10 | 55.76011 | -132.31042 | 15186 ft | 406 kts | 326° |
| 2026-05-06 10:10 | 55.78442 | -132.33647 | 15192 ft | 409 kts | 326° |
| 2026-05-06 10:11 | 55.80882 | -132.36256 | 15191 ft | 410 kts | 326° |
| 2026-05-06 10:11 | 55.83287 | -132.38821 | 14993 ft | 396 kts | 326° |
| 2026-05-06 10:11 | 55.85603 | -132.41291 | 14747 ft | 382 kts | 326° |
| 2026-05-06 10:11 | 55.87852 | -132.43701 | 14448 ft | 373 kts | 326° |
| 2026-05-06 10:12 | 55.90062 | -132.46083 | 13867 ft | 369 kts | 326° |
| 2026-05-06 10:12 | 55.92250 | -132.48447 | 13226 ft | 365 kts | 326° |
| 2026-05-06 10:12 | 55.94407 | -132.50779 | 12616 ft | 360 kts | 326° |
| 2026-05-06 10:12 | 55.96531 | -132.53081 | 12009 ft | 356 kts | 326° |
| 2026-05-06 10:13 | 55.98637 | -132.55368 | 11400 ft | 352 kts | 326° |
| 2026-05-06 10:13 | 56.00715 | -132.57622 | 11055 ft | 342 kts | 326° |
| 2026-05-06 10:13 | 56.02700 | -132.59769 | 10929 ft | 326 kts | 326° |
| 2026-05-06 10:13 | 56.04599 | -132.61824 | 10802 ft | 312 kts | 326° |
| 2026-05-06 10:14 | 56.06417 | -132.63798 | 10680 ft | 300 kts | 326° |
| 2026-05-06 10:14 | 56.08165 | -132.65706 | 10557 ft | 288 kts | 326° |
| 2026-05-06 10:14 | 56.09849 | -132.67548 | 10360 ft | 281 kts | 326° |
| 2026-05-06 10:14 | 56.11504 | -132.69359 | 10140 ft | 277 kts | 326° |
| 2026-05-06 10:15 | 56.13135 | -132.71146 | 10023 ft | 275 kts | 325° |
| 2026-05-06 10:15 | 56.14766 | -132.72935 | 9881 ft | 274 kts | 325° |
| 2026-05-06 10:15 | 56.16391 | -132.74719 | 9615 ft | 273 kts | 325° |
| 2026-05-06 10:15 | 56.18009 | -132.76498 | 9259 ft | 272 kts | 325° |
| 2026-05-06 10:16 | 56.19621 | -132.78268 | 8815 ft | 274 kts | 326° |
| 2026-05-06 10:16 | 56.21257 | -132.80061 | 8419 ft | 274 kts | 326° |
| 2026-05-06 10:16 | 56.22882 | -132.81841 | 8044 ft | 274 kts | 326° |
| 2026-05-06 10:16 | 56.24509 | -132.83621 | 7663 ft | 274 kts | 327° |
| 2026-05-06 10:17 | 56.26122 | -132.85391 | 7329 ft | 272 kts | 327° |
| 2026-05-06 10:17 | 56.27733 | -132.87171 | 7023 ft | 270 kts | 327° |
| 2026-05-06 10:17 | 56.29322 | -132.88932 | 6713 ft | 268 kts | 327° |
| 2026-05-06 10:17 | 56.30914 | -132.90691 | 6330 ft | 268 kts | 327° |
| 2026-05-06 10:18 | 56.32501 | -132.92444 | 5998 ft | 267 kts | 327° |
| 2026-05-06 10:18 | 56.34079 | -132.94189 | 5638 ft | 265 kts | 327° |
| 2026-05-06 10:18 | 56.35647 | -132.95924 | 5326 ft | 263 kts | 327° |
| 2026-05-06 10:18 | 56.37199 | -132.97646 | 4992 ft | 262 kts | 327° |
| 2026-05-06 10:19 | 56.38754 | -132.99377 | 4589 ft | 263 kts | 327° |
| 2026-05-06 10:19 | 56.40312 | -133.01112 | 4237 ft | 262 kts | 327° |
| 2026-05-06 10:19 | 56.41889 | -133.02661 | 3856 ft | 263 kts | 339° |
| 2026-05-06 10:19 | 56.43765 | -133.03121 | 3085 ft | 278 kts | 5° |
| 2026-05-06 10:20 | 56.45580 | -133.01952 | 2570 ft | 284 kts | 34° |
| 2026-05-06 10:20 | 56.46902 | -132.99361 | 2484 ft | 272 kts | 60° |
| 2026-05-06 10:20 | 56.47456 | -132.96265 | 2495 ft | 257 kts | 83° |
| 2026-05-06 10:20 | 56.47637 | -132.93141 | 2497 ft | 242 kts | 84° |
| 2026-05-06 10:21 | 56.47799 | -132.90215 | 2498 ft | 227 kts | 84° |
| 2026-05-06 10:21 | 56.47950 | -132.87466 | 2499 ft | 216 kts | 84° |
| 2026-05-06 10:21 | 56.48098 | -132.84765 | 2501 ft | 215 kts | 84° |
| 2026-05-06 10:21 | 56.48248 | -132.82069 | 2501 ft | 215 kts | 84° |
| 2026-05-06 10:22 | 56.48396 | -132.79374 | 2503 ft | 215 kts | 84° |
| 2026-05-06 10:22 | 56.48544 | -132.76678 | 2504 ft | 215 kts | 84° |
| 2026-05-06 10:22 | 56.48691 | -132.73985 | 2504 ft | 215 kts | 84° |
| 2026-05-06 10:22 | 56.48839 | -132.71290 | 2505 ft | 215 kts | 84° |
| 2026-05-06 10:23 | 56.48986 | -132.68593 | 2505 ft | 215 kts | 84° |
| 2026-05-06 10:23 | 56.49133 | -132.65892 | 2512 ft | 216 kts | 84° |
| 2026-05-06 10:23 | 56.49277 | -132.63193 | 2509 ft | 215 kts | 84° |
| 2026-05-06 10:23 | 56.49419 | -132.60489 | 2508 ft | 216 kts | 84° |
| 2026-05-06 10:24 | 56.49562 | -132.57785 | 2512 ft | 216 kts | 84° |
| 2026-05-06 10:24 | 56.49705 | -132.55087 | 2509 ft | 215 kts | 84° |
| 2026-05-06 10:24 | 56.49848 | -132.52391 | 2510 ft | 215 kts | 84° |
| 2026-05-06 10:24 | 56.50161 | -132.49747 | 2511 ft | 216 kts | 68° |
| 2026-05-06 10:25 | 56.50832 | -132.47329 | 2435 ft | 215 kts | 60° |
| 2026-05-06 10:25 | 56.51557 | -132.44973 | 2342 ft | 213 kts | 61° |
| 2026-05-06 10:25 | 56.52259 | -132.42642 | 2263 ft | 210 kts | 64° |
| 2026-05-06 10:25 | 56.52607 | -132.40102 | 2196 ft | 209 kts | 90° |
| 2026-05-06 10:26 | 56.52347 | -132.37541 | 2102 ft | 208 kts | 111° |
| 2026-05-06 10:26 | 56.51841 | -132.35090 | 2000 ft | 206 kts | 111° |
| 2026-05-06 10:26 | 56.51360 | -132.32717 | 1908 ft | 196 kts | 110° |
| 2026-05-06 10:26 | 56.50898 | -132.30423 | 1815 ft | 193 kts | 111° |
| 2026-05-06 10:27 | 56.50213 | -132.28382 | 1626 ft | 190 kts | 140° |
| 2026-05-06 10:27 | 56.49038 | -132.27551 | 1298 ft | 180 kts | 182° |
| 2026-05-06 10:27 | 56.47920 | -132.28238 | 1028 ft | 167 kts | 220° |
| 2026-05-06 10:27 | 56.47305 | -132.29859 | 797 ft | 151 kts | 255° |
| 2026-05-06 10:28 | 56.47286 | -132.31666 | 594 ft | 139 kts | 285° |
| 2026-05-06 10:28 | 56.47527 | -132.33312 | 411 ft | 134 kts | 282° |
| 2026-05-06 10:28 | 56.47802 | -132.34893 | 232 ft | 131 kts | 295° |
| 2026-05-06 10:28 | 56.48204 | -132.36348 | 45 ft | 122 kts | 302° |
| 2026-05-06 10:29 | 56.48568 | -132.37378 | 34 ft | 58 kts | 300° |
| 2026-05-06 10:29 | 56.48675 | -132.37753 | 34 ft | 20 kts | 266° |
| 2026-05-06 10:29 | 56.48599 | -132.37902 | 34 ft | 11 kts | 213° |
| 2026-05-06 10:29 | 56.48536 | -132.37859 | 36 ft | 8 kts | 185° |
| 2026-05-06 10:30 | 56.48537 | -132.37896 | 36 ft | 4 kts | 300° |
| 2026-05-06 10:30 | 56.48543 | -132.37917 | 36 ft | 2 kts | 297° |
| 2026-05-06 10:30 | 56.48545 | -132.37923 | 36 ft | 0 kts | 298° |